sensor_id;sensor_type;location;lat;lon;timestamp;temperature;humidity
11067;DHT22;29763;50.904;5.530;2023-09-08T00:00:15;17.90;99.90
11067;DHT22;29763;50.904;5.530;2023-09-08T00:02:40;17.90;99.90
11067;DHT22;29763;50.904;5.530;2023-09-08T00:05:06;17.80;99.90
11067;DHT22;29763;50.904;5.530;2023-09-08T00:07:33;17.80;99.90
11067;DHT22;29763;50.904;5.530;2023-09-08T00:09:59;17.80;99.90
11067;DHT22;29763;50.904;5.530;2023-09-08T00:12:26;17.80;99.90
11067;DHT22;29763;50.904;5.530;2023-09-08T00:14:51;17.70;99.90
11067;DHT22;29763;50.904;5.530;2023-09-08T00:17:17;17.70;99.90
11067;DHT22;29763;50.904;5.530;2023-09-08T00:19:43;17.70;99.90
11067;DHT22;29763;50.904;5.530;2023-09-08T00:22:09;17.60;99.90
11067;DHT22;29763;50.904;5.530;2023-09-08T00:24:35;17.60;99.90
11067;DHT22;29763;50.904;5.530;2023-09-08T00:27:01;17.60;99.90
11067;DHT22;29763;50.904;5.530;2023-09-08T00:29:27;17.60;99.90
11067;DHT22;29763;50.904;5.530;2023-09-08T00:32:00;17.60;99.90
11067;DHT22;29763;50.904;5.530;2023-09-08T00:34:32;17.60;99.90
11067;DHT22;29763;50.904;5.530;2023-09-08T00:36:58;17.50;99.90
11067;DHT22;29763;50.904;5.530;2023-09-08T00:39:35;17.50;99.90
11067;DHT22;29763;50.904;5.530;2023-09-08T00:42:01;17.50;99.90
11067;DHT22;29763;50.904;5.530;2023-09-08T00:44:31;17.50;99.90
11067;DHT22;29763;50.904;5.530;2023-09-08T00:46:57;17.50;99.90
11067;DHT22;29763;50.904;5.530;2023-09-08T00:49:23;17.40;99.90
11067;DHT22;29763;50.904;5.530;2023-09-08T00:51:49;17.40;99.90
11067;DHT22;29763;50.904;5.530;2023-09-08T00:54:15;17.40;99.90
11067;DHT22;29763;50.904;5.530;2023-09-08T00:56:43;17.30;99.90
11067;DHT22;29763;50.904;5.530;2023-09-08T00:59:11;17.20;99.90
11067;DHT22;29763;50.904;5.530;2023-09-08T01:01:38;17.20;99.90
11067;DHT22;29763;50.904;5.530;2023-09-08T01:04:05;17.10;99.90
11067;DHT22;29763;50.904;5.530;2023-09-08T01:06:31;17.10;99.90
11067;DHT22;29763;50.904;5.530;2023-09-08T01:08:58;17.10;99.90
11067;DHT22;29763;50.904;5.530;2023-09-08T01:11:26;17.00;99.90
11067;DHT22;29763;50.904;5.530;2023-09-08T01:13:52;17.00;99.90
11067;DHT22;29763;50.904;5.530;2023-09-08T01:16:18;17.00;99.90
11067;DHT22;29763;50.904;5.530;2023-09-08T01:18:46;16.90;99.90
11067;DHT22;29763;50.904;5.530;2023-09-08T01:21:39;17.00;99.90
11067;DHT22;29763;50.904;5.530;2023-09-08T01:27:15;17.00;99.90
11067;DHT22;29763;50.904;5.530;2023-09-08T01:29:42;16.90;99.90
11067;DHT22;29763;50.904;5.530;2023-09-08T01:32:08;16.90;99.90
11067;DHT22;29763;50.904;5.530;2023-09-08T01:34:36;16.90;99.90
11067;DHT22;29763;50.904;5.530;2023-09-08T01:37:06;16.90;99.90
11067;DHT22;29763;50.904;5.530;2023-09-08T01:39:33;16.80;99.90
11067;DHT22;29763;50.904;5.530;2023-09-08T01:41:59;16.90;99.90
11067;DHT22;29763;50.904;5.530;2023-09-08T01:44:24;16.80;99.90
11067;DHT22;29763;50.904;5.530;2023-09-08T01:46:50;16.80;99.90
11067;DHT22;29763;50.904;5.530;2023-09-08T01:49:24;16.70;99.90
11067;DHT22;29763;50.904;5.530;2023-09-08T01:51:52;16.70;99.90
11067;DHT22;29763;50.904;5.530;2023-09-08T01:54:19;16.70;99.90
11067;DHT22;29763;50.904;5.530;2023-09-08T01:56:46;16.80;99.90
11067;DHT22;29763;50.904;5.530;2023-09-08T01:59:14;16.70;99.90
11067;DHT22;29763;50.904;5.530;2023-09-08T02:01:40;16.70;99.90
11067;DHT22;29763;50.904;5.530;2023-09-08T02:04:07;16.60;99.90
11067;DHT22;29763;50.904;5.530;2023-09-08T02:06:39;16.60;99.90
11067;DHT22;29763;50.904;5.530;2023-09-08T02:09:04;16.70;99.90
11067;DHT22;29763;50.904;5.530;2023-09-08T02:11:36;16.60;99.90
11067;DHT22;29763;50.904;5.530;2023-09-08T02:14:06;16.60;99.90
11067;DHT22;29763;50.904;5.530;2023-09-08T02:16:32;16.60;99.90
11067;DHT22;29763;50.904;5.530;2023-09-08T02:18:58;16.60;99.90
11067;DHT22;29763;50.904;5.530;2023-09-08T02:21:30;16.60;99.90
11067;DHT22;29763;50.904;5.530;2023-09-08T02:23:55;16.50;99.90
11067;DHT22;29763;50.904;5.530;2023-09-08T02:26:21;16.50;99.90
11067;DHT22;29763;50.904;5.530;2023-09-08T02:28:47;16.50;99.90
11067;DHT22;29763;50.904;5.530;2023-09-08T02:31:14;16.50;99.90
11067;DHT22;29763;50.904;5.530;2023-09-08T02:33:41;16.50;99.90
11067;DHT22;29763;50.904;5.530;2023-09-08T02:36:06;16.50;99.90
11067;DHT22;29763;50.904;5.530;2023-09-08T02:38:32;16.50;99.90
11067;DHT22;29763;50.904;5.530;2023-09-08T02:41:05;16.40;99.90
11067;DHT22;29763;50.904;5.530;2023-09-08T02:43:36;16.50;99.90
11067;DHT22;29763;50.904;5.530;2023-09-08T02:46:02;16.40;99.90
11067;DHT22;29763;50.904;5.530;2023-09-08T02:48:29;16.40;99.90
11067;DHT22;29763;50.904;5.530;2023-09-08T02:51:01;16.40;99.90
11067;DHT22;29763;50.904;5.530;2023-09-08T02:53:26;16.30;99.90
11067;DHT22;29763;50.904;5.530;2023-09-08T02:55:59;16.40;99.90
11067;DHT22;29763;50.904;5.530;2023-09-08T02:58:28;16.40;99.90
11067;DHT22;29763;50.904;5.530;2023-09-08T03:00:56;16.40;99.90
11067;DHT22;29763;50.904;5.530;2023-09-08T03:03:22;16.40;99.90
11067;DHT22;29763;50.904;5.530;2023-09-08T03:05:47;16.40;99.90
11067;DHT22;29763;50.904;5.530;2023-09-08T03:08:13;16.40;99.90
11067;DHT22;29763;50.904;5.530;2023-09-08T03:10:45;16.30;99.90
11067;DHT22;29763;50.904;5.530;2023-09-08T03:13:12;16.30;99.90
11067;DHT22;29763;50.904;5.530;2023-09-08T03:15:39;16.30;99.90
11067;DHT22;29763;50.904;5.530;2023-09-08T03:18:06;16.20;99.90
11067;DHT22;29763;50.904;5.530;2023-09-08T03:20:33;16.20;99.90
11067;DHT22;29763;50.904;5.530;2023-09-08T03:22:59;16.30;99.90
11067;DHT22;29763;50.904;5.530;2023-09-08T03:25:25;16.20;99.90
11067;DHT22;29763;50.904;5.530;2023-09-08T03:27:50;16.20;99.90
11067;DHT22;29763;50.904;5.530;2023-09-08T03:30:16;16.20;99.90
11067;DHT22;29763;50.904;5.530;2023-09-08T03:32:42;16.10;99.90
11067;DHT22;29763;50.904;5.530;2023-09-08T03:35:09;16.20;99.90
11067;DHT22;29763;50.904;5.530;2023-09-08T03:37:41;16.10;99.90
11067;DHT22;29763;50.904;5.530;2023-09-08T03:40:10;16.10;99.90
11067;DHT22;29763;50.904;5.530;2023-09-08T03:42:35;16.10;99.90
11067;DHT22;29763;50.904;5.530;2023-09-08T03:45:04;16.00;99.90
11067;DHT22;29763;50.904;5.530;2023-09-08T03:47:31;16.10;99.90
11067;DHT22;29763;50.904;5.530;2023-09-08T03:49:58;16.10;99.90
11067;DHT22;29763;50.904;5.530;2023-09-08T03:52:25;16.10;99.90
11067;DHT22;29763;50.904;5.530;2023-09-08T03:54:54;16.20;99.90
11067;DHT22;29763;50.904;5.530;2023-09-08T03:57:25;16.20;99.90
11067;DHT22;29763;50.904;5.530;2023-09-08T03:59:51;16.20;99.90
11067;DHT22;29763;50.904;5.530;2023-09-08T04:02:18;16.20;99.90
11067;DHT22;29763;50.904;5.530;2023-09-08T04:04:44;16.20;99.90
11067;DHT22;29763;50.904;5.530;2023-09-08T04:07:11;16.20;99.90
11067;DHT22;29763;50.904;5.530;2023-09-08T04:09:43;16.10;99.90
11067;DHT22;29763;50.904;5.530;2023-09-08T04:12:09;16.10;99.90
11067;DHT22;29763;50.904;5.530;2023-09-08T04:14:37;16.20;99.90
11067;DHT22;29763;50.904;5.530;2023-09-08T04:17:05;16.10;99.90
11067;DHT22;29763;50.904;5.530;2023-09-08T04:19:31;16.10;99.90
11067;DHT22;29763;50.904;5.530;2023-09-08T04:21:58;16.10;99.90
11067;DHT22;29763;50.904;5.530;2023-09-08T04:24:24;16.00;99.90
11067;DHT22;29763;50.904;5.530;2023-09-08T04:26:50;16.10;99.90
11067;DHT22;29763;50.904;5.530;2023-09-08T04:29:16;16.10;99.90
11067;DHT22;29763;50.904;5.530;2023-09-08T04:31:42;16.10;99.90
11067;DHT22;29763;50.904;5.530;2023-09-08T04:34:07;16.10;99.90
11067;DHT22;29763;50.904;5.530;2023-09-08T04:36:33;16.10;99.90
11067;DHT22;29763;50.904;5.530;2023-09-08T04:39:00;16.00;99.90
11067;DHT22;29763;50.904;5.530;2023-09-08T04:41:26;15.90;99.90
11067;DHT22;29763;50.904;5.530;2023-09-08T04:43:55;15.90;99.90
11067;DHT22;29763;50.904;5.530;2023-09-08T04:46:24;15.80;99.90
11067;DHT22;29763;50.904;5.530;2023-09-08T04:48:50;15.80;99.90
11067;DHT22;29763;50.904;5.530;2023-09-08T04:51:15;15.70;99.90
11067;DHT22;29763;50.904;5.530;2023-09-08T04:53:41;15.60;99.90
11067;DHT22;29763;50.904;5.530;2023-09-08T04:56:07;15.50;99.90
11067;DHT22;29763;50.904;5.530;2023-09-08T04:58:33;15.50;99.90
11067;DHT22;29763;50.904;5.530;2023-09-08T05:00:58;15.50;99.90
11067;DHT22;29763;50.904;5.530;2023-09-08T05:03:24;15.50;99.90
11067;DHT22;29763;50.904;5.530;2023-09-08T05:05:52;15.50;99.90
11067;DHT22;29763;50.904;5.530;2023-09-08T05:08:19;15.50;99.90
11067;DHT22;29763;50.904;5.530;2023-09-08T05:10:51;15.50;99.90
11067;DHT22;29763;50.904;5.530;2023-09-08T05:13:17;15.50;99.90
11067;DHT22;29763;50.904;5.530;2023-09-08T05:15:43;15.50;99.90
11067;DHT22;29763;50.904;5.530;2023-09-08T05:18:10;15.40;99.90
11067;DHT22;29763;50.904;5.530;2023-09-08T05:20:37;15.40;99.90
11067;DHT22;29763;50.904;5.530;2023-09-08T05:23:04;15.50;99.90
11067;DHT22;29763;50.904;5.530;2023-09-08T05:25:31;15.50;99.90
11067;DHT22;29763;50.904;5.530;2023-09-08T05:27:59;15.50;99.90
11067;DHT22;29763;50.904;5.530;2023-09-08T05:30:27;15.50;99.90
11067;DHT22;29763;50.904;5.530;2023-09-08T05:32:57;15.50;99.90
11067;DHT22;29763;50.904;5.530;2023-09-08T05:35:24;15.50;99.90
11067;DHT22;29763;50.904;5.530;2023-09-08T05:37:50;15.50;99.90
11067;DHT22;29763;50.904;5.530;2023-09-08T05:40:16;15.60;99.90
11067;DHT22;29763;50.904;5.530;2023-09-08T05:42:42;15.50;99.90
11067;DHT22;29763;50.904;5.530;2023-09-08T05:45:08;15.60;99.90
11067;DHT22;29763;50.904;5.530;2023-09-08T05:47:35;15.60;99.90
11067;DHT22;29763;50.904;5.530;2023-09-08T05:50:02;15.70;99.90
11067;DHT22;29763;50.904;5.530;2023-09-08T05:52:28;15.70;99.90
11067;DHT22;29763;50.904;5.530;2023-09-08T05:54:57;15.80;99.90
11067;DHT22;29763;50.904;5.530;2023-09-08T05:57:24;15.90;99.90
11067;DHT22;29763;50.904;5.530;2023-09-08T05:59:52;16.10;99.90
11067;DHT22;29763;50.904;5.530;2023-09-08T06:02:25;16.20;99.90
11067;DHT22;29763;50.904;5.530;2023-09-08T06:04:51;16.30;99.90
11067;DHT22;29763;50.904;5.530;2023-09-08T06:07:29;16.50;99.90
11067;DHT22;29763;50.904;5.530;2023-09-08T06:09:55;16.70;99.90
11067;DHT22;29763;50.904;5.530;2023-09-08T06:12:22;16.90;99.90
11067;DHT22;29763;50.904;5.530;2023-09-08T06:14:49;17.00;99.90
11067;DHT22;29763;50.904;5.530;2023-09-08T06:17:23;17.20;99.90
11067;DHT22;29763;50.904;5.530;2023-09-08T06:19:49;17.40;99.90
11067;DHT22;29763;50.904;5.530;2023-09-08T06:22:16;17.60;99.90
11067;DHT22;29763;50.904;5.530;2023-09-08T06:24:41;17.70;99.90
11067;DHT22;29763;50.904;5.530;2023-09-08T06:27:08;17.90;99.90
11067;DHT22;29763;50.904;5.530;2023-09-08T06:29:37;18.20;99.90
11067;DHT22;29763;50.904;5.530;2023-09-08T06:32:07;18.40;99.90
11067;DHT22;29763;50.904;5.530;2023-09-08T06:34:35;18.60;99.90
11067;DHT22;29763;50.904;5.530;2023-09-08T06:37:04;19.00;99.90
11067;DHT22;29763;50.904;5.530;2023-09-08T06:39:39;19.30;99.90
11067;DHT22;29763;50.904;5.530;2023-09-08T06:42:07;19.60;99.90
11067;DHT22;29763;50.904;5.530;2023-09-08T06:44:33;19.90;99.90
11067;DHT22;29763;50.904;5.530;2023-09-08T06:46:59;20.20;99.90
11067;DHT22;29763;50.904;5.530;2023-09-08T06:49:33;20.50;99.90
11067;DHT22;29763;50.904;5.530;2023-09-08T06:52:01;20.90;99.90
11067;DHT22;29763;50.904;5.530;2023-09-08T06:54:27;21.10;99.90
11067;DHT22;29763;50.904;5.530;2023-09-08T06:56:59;21.50;99.90
11067;DHT22;29763;50.904;5.530;2023-09-08T06:59:26;21.80;99.90
11067;DHT22;29763;50.904;5.530;2023-09-08T07:01:56;22.10;99.90
11067;DHT22;29763;50.904;5.530;2023-09-08T07:04:26;22.40;99.90
11067;DHT22;29763;50.904;5.530;2023-09-08T07:06:52;22.70;99.90
11067;DHT22;29763;50.904;5.530;2023-09-08T07:09:22;23.10;99.90
11067;DHT22;29763;50.904;5.530;2023-09-08T07:11:51;23.40;99.90
11067;DHT22;29763;50.904;5.530;2023-09-08T07:14:17;23.70;99.90
11067;DHT22;29763;50.904;5.530;2023-09-08T07:16:46;24.10;99.90
11067;DHT22;29763;50.904;5.530;2023-09-08T07:19:16;24.40;99.90
11067;DHT22;29763;50.904;5.530;2023-09-08T07:21:48;24.70;99.90
11067;DHT22;29763;50.904;5.530;2023-09-08T07:24:18;25.00;99.90
11067;DHT22;29763;50.904;5.530;2023-09-08T07:26:50;25.30;99.90
11067;DHT22;29763;50.904;5.530;2023-09-08T07:29:16;25.30;99.90
11067;DHT22;29763;50.904;5.530;2023-09-08T07:31:48;25.30;99.90
11067;DHT22;29763;50.904;5.530;2023-09-08T07:34:19;25.40;99.90
11067;DHT22;29763;50.904;5.530;2023-09-08T07:36:50;25.60;99.90
11067;DHT22;29763;50.904;5.530;2023-09-08T07:39:25;25.80;99.90
11067;DHT22;29763;50.904;5.530;2023-09-08T07:42:11;26.00;99.90
11067;DHT22;29763;50.904;5.530;2023-09-08T07:44:38;26.20;99.90
11067;DHT22;29763;50.904;5.530;2023-09-08T07:47:04;26.40;99.90
11067;DHT22;29763;50.904;5.530;2023-09-08T07:49:30;26.80;99.90
11067;DHT22;29763;50.904;5.530;2023-09-08T07:51:57;26.70;99.90
11067;DHT22;29763;50.904;5.530;2023-09-08T07:54:31;27.10;99.90
11067;DHT22;29763;50.904;5.530;2023-09-08T07:57:02;27.30;99.90
11067;DHT22;29763;50.904;5.530;2023-09-08T07:59:34;27.70;99.90
11067;DHT22;29763;50.904;5.530;2023-09-08T08:02:10;27.80;99.90
11067;DHT22;29763;50.904;5.530;2023-09-08T08:04:57;28.10;99.90
11067;DHT22;29763;50.904;5.530;2023-09-08T08:07:26;28.50;99.90
11067;DHT22;29763;50.904;5.530;2023-09-08T08:09:52;29.10;99.90
11067;DHT22;29763;50.904;5.530;2023-09-08T08:12:23;29.20;99.90
11067;DHT22;29763;50.904;5.530;2023-09-08T08:14:52;29.60;99.90
11067;DHT22;29763;50.904;5.530;2023-09-08T08:17:45;30.00;99.90
11067;DHT22;29763;50.904;5.530;2023-09-08T08:20:34;30.20;99.90
11067;DHT22;29763;50.904;5.530;2023-09-08T08:23:26;30.70;99.90
11067;DHT22;29763;50.904;5.530;2023-09-08T08:26:13;30.80;99.90
11067;DHT22;29763;50.904;5.530;2023-09-08T08:28:39;31.20;99.90
11067;DHT22;29763;50.904;5.530;2023-09-08T08:31:06;31.00;99.90
11067;DHT22;29763;50.904;5.530;2023-09-08T08:33:35;31.40;99.90
11067;DHT22;29763;50.904;5.530;2023-09-08T08:36:05;31.40;99.90
11067;DHT22;29763;50.904;5.530;2023-09-08T08:38:39;31.30;99.90
11067;DHT22;29763;50.904;5.530;2023-09-08T08:41:14;31.40;99.90
11067;DHT22;29763;50.904;5.530;2023-09-08T08:43:43;31.90;99.90
11067;DHT22;29763;50.904;5.530;2023-09-08T08:46:13;32.20;99.90
11067;DHT22;29763;50.904;5.530;2023-09-08T08:48:50;32.70;99.90
11067;DHT22;29763;50.904;5.530;2023-09-08T08:51:23;32.60;99.90
11067;DHT22;29763;50.904;5.530;2023-09-08T08:53:50;32.70;99.90
11067;DHT22;29763;50.904;5.530;2023-09-08T08:56:19;33.20;99.90
11067;DHT22;29763;50.904;5.530;2023-09-08T08:58:46;33.50;99.90
11067;DHT22;29763;50.904;5.530;2023-09-08T09:01:18;33.80;99.90
11067;DHT22;29763;50.904;5.530;2023-09-08T09:03:58;33.90;99.90
11067;DHT22;29763;50.904;5.530;2023-09-08T09:06:26;34.00;99.90
11067;DHT22;29763;50.904;5.530;2023-09-08T09:08:57;34.20;99.90
11067;DHT22;29763;50.904;5.530;2023-09-08T09:11:22;34.50;99.90
11067;DHT22;29763;50.904;5.530;2023-09-08T09:13:51;34.50;99.90
11067;DHT22;29763;50.904;5.530;2023-09-08T09:16:20;34.60;99.90
11067;DHT22;29763;50.904;5.530;2023-09-08T09:19:01;35.00;99.90
11067;DHT22;29763;50.904;5.530;2023-09-08T09:21:47;35.20;99.90
11067;DHT22;29763;50.904;5.530;2023-09-08T09:24:35;35.30;99.90
11067;DHT22;29763;50.904;5.530;2023-09-08T09:27:07;35.40;99.90
11067;DHT22;29763;50.904;5.530;2023-09-08T09:29:46;35.60;99.90
11067;DHT22;29763;50.904;5.530;2023-09-08T09:32:23;36.00;99.90
11067;DHT22;29763;50.904;5.530;2023-09-08T09:34:53;35.80;99.90
11067;DHT22;29763;50.904;5.530;2023-09-08T09:37:23;36.20;99.90
11067;DHT22;29763;50.904;5.530;2023-09-08T09:39:53;35.50;99.90
11067;DHT22;29763;50.904;5.530;2023-09-08T09:42:22;35.90;99.90
11067;DHT22;29763;50.904;5.530;2023-09-08T09:44:51;36.20;99.90
11067;DHT22;29763;50.904;5.530;2023-09-08T09:47:21;36.50;99.90
11067;DHT22;29763;50.904;5.530;2023-09-08T09:49:48;36.70;99.90
11067;DHT22;29763;50.904;5.530;2023-09-08T09:52:23;37.20;99.20
11067;DHT22;29763;50.904;5.530;2023-09-08T09:55:05;37.20;98.20
11067;DHT22;29763;50.904;5.530;2023-09-08T09:57:31;37.40;98.80
11067;DHT22;29763;50.904;5.530;2023-09-08T09:59:59;37.50;98.50
11067;DHT22;29763;50.904;5.530;2023-09-08T10:02:26;36.70;97.80
11067;DHT22;29763;50.904;5.530;2023-09-08T10:04:54;36.80;98.70
11067;DHT22;29763;50.904;5.530;2023-09-08T10:07:24;36.10;98.20
11067;DHT22;29763;50.904;5.530;2023-09-08T10:09:50;36.10;99.10
11067;DHT22;29763;50.904;5.530;2023-09-08T10:12:19;36.40;99.10
11067;DHT22;29763;50.904;5.530;2023-09-08T10:14:47;36.90;98.20
11067;DHT22;29763;50.904;5.530;2023-09-08T10:17:18;36.70;98.10
11067;DHT22;29763;50.904;5.530;2023-09-08T10:19:48;37.10;97.50
11067;DHT22;29763;50.904;5.530;2023-09-08T10:22:20;36.70;96.90
11067;DHT22;29763;50.904;5.530;2023-09-08T10:24:52;35.80;97.20
11067;DHT22;29763;50.904;5.530;2023-09-08T10:27:19;35.60;97.50
11067;DHT22;29763;50.904;5.530;2023-09-08T10:29:48;35.30;98.20
11067;DHT22;29763;50.904;5.530;2023-09-08T10:32:17;35.60;98.90
11067;DHT22;29763;50.904;5.530;2023-09-08T10:34:45;35.60;99.30
11067;DHT22;29763;50.904;5.530;2023-09-08T10:37:22;36.30;98.50
11067;DHT22;29763;50.904;5.530;2023-09-08T10:40:20;35.50;97.60
11067;DHT22;29763;50.904;5.530;2023-09-08T10:42:46;35.40;98.60
11067;DHT22;29763;50.904;5.530;2023-09-08T10:45:19;35.90;98.80
11067;DHT22;29763;50.904;5.530;2023-09-08T10:48:05;35.90;98.20
11067;DHT22;29763;50.904;5.530;2023-09-08T10:50:34;35.90;97.50
11067;DHT22;29763;50.904;5.530;2023-09-08T10:53:14;36.20;97.20
11067;DHT22;29763;50.904;5.530;2023-09-08T10:55:46;36.70;97.70
11067;DHT22;29763;50.904;5.530;2023-09-08T10:58:39;36.90;96.90
11067;DHT22;29763;50.904;5.530;2023-09-08T11:01:18;37.40;96.70
11067;DHT22;29763;50.904;5.530;2023-09-08T11:03:58;37.50;96.20
11067;DHT22;29763;50.904;5.530;2023-09-08T11:06:24;38.00;95.90
11067;DHT22;29763;50.904;5.530;2023-09-08T11:08:55;38.30;95.30
11067;DHT22;29763;50.904;5.530;2023-09-08T11:11:23;36.80;94.70
11067;DHT22;29763;50.904;5.530;2023-09-08T11:13:49;36.70;96.60
11067;DHT22;29763;50.904;5.530;2023-09-08T11:16:16;37.20;96.70
11067;DHT22;29763;50.904;5.530;2023-09-08T11:18:46;37.80;96.30
11067;DHT22;29763;50.904;5.530;2023-09-08T11:21:12;37.50;95.40
11067;DHT22;29763;50.904;5.530;2023-09-08T11:23:41;36.90;96.30
11067;DHT22;29763;50.904;5.530;2023-09-08T11:26:07;36.50;96.60
11067;DHT22;29763;50.904;5.530;2023-09-08T11:28:41;36.20;96.20
11067;DHT22;29763;50.904;5.530;2023-09-08T11:31:10;36.80;96.60
11067;DHT22;29763;50.904;5.530;2023-09-08T11:33:36;36.90;96.70
11067;DHT22;29763;50.904;5.530;2023-09-08T11:36:12;37.00;96.90
11067;DHT22;29763;50.904;5.530;2023-09-08T11:38:44;36.40;96.30
11067;DHT22;29763;50.904;5.530;2023-09-08T11:41:13;36.50;96.70
11067;DHT22;29763;50.904;5.530;2023-09-08T11:43:40;36.50;97.10
11067;DHT22;29763;50.904;5.530;2023-09-08T11:46:06;36.70;97.10
11067;DHT22;29763;50.904;5.530;2023-09-08T11:48:33;37.30;96.20
11067;DHT22;29763;50.904;5.530;2023-09-08T11:50:59;37.50;95.50
11067;DHT22;29763;50.904;5.530;2023-09-08T11:53:27;37.20;94.90
11067;DHT22;29763;50.904;5.530;2023-09-08T11:55:53;37.30;95.80
11067;DHT22;29763;50.904;5.530;2023-09-08T11:58:19;37.30;95.30
11067;DHT22;29763;50.904;5.530;2023-09-08T12:00:46;37.30;95.60
11067;DHT22;29763;50.904;5.530;2023-09-08T12:03:15;37.20;94.90
11067;DHT22;29763;50.904;5.530;2023-09-08T12:05:43;36.10;95.00
11067;DHT22;29763;50.904;5.530;2023-09-08T12:08:11;35.90;96.90
11067;DHT22;29763;50.904;5.530;2023-09-08T12:10:41;36.50;96.80
11067;DHT22;29763;50.904;5.530;2023-09-08T12:13:08;36.50;95.80
11067;DHT22;29763;50.904;5.530;2023-09-08T12:15:39;36.40;95.70
11067;DHT22;29763;50.904;5.530;2023-09-08T12:18:13;36.50;96.10
11067;DHT22;29763;50.904;5.530;2023-09-08T12:20:42;37.00;95.70
11067;DHT22;29763;50.904;5.530;2023-09-08T12:23:19;37.40;95.00
11067;DHT22;29763;50.904;5.530;2023-09-08T12:25:47;37.90;94.20
11067;DHT22;29763;50.904;5.530;2023-09-08T12:28:24;38.20;94.20
11067;DHT22;29763;50.904;5.530;2023-09-08T12:30:57;38.00;93.30
11067;DHT22;29763;50.904;5.530;2023-09-08T12:33:23;37.80;94.60
11067;DHT22;29763;50.904;5.530;2023-09-08T12:35:51;37.50;94.50
11067;DHT22;29763;50.904;5.530;2023-09-08T12:38:19;37.80;94.90
11067;DHT22;29763;50.904;5.530;2023-09-08T12:40:45;37.20;94.30
11067;DHT22;29763;50.904;5.530;2023-09-08T12:43:11;37.20;94.50
11067;DHT22;29763;50.904;5.530;2023-09-08T12:45:37;36.80;95.10
11067;DHT22;29763;50.904;5.530;2023-09-08T12:48:06;37.00;95.30
11067;DHT22;29763;50.904;5.530;2023-09-08T12:50:32;36.50;94.20
11067;DHT22;29763;50.904;5.530;2023-09-08T12:52:58;36.90;95.00
11067;DHT22;29763;50.904;5.530;2023-09-08T12:55:25;37.10;95.30
11067;DHT22;29763;50.904;5.530;2023-09-08T12:57:51;37.10;94.30
11067;DHT22;29763;50.904;5.530;2023-09-08T13:00:21;37.30;94.70
11067;DHT22;29763;50.904;5.530;2023-09-08T13:02:48;37.60;94.40
11067;DHT22;29763;50.904;5.530;2023-09-08T13:05:14;37.90;94.10
11067;DHT22;29763;50.904;5.530;2023-09-08T13:07:46;38.00;94.00
11067;DHT22;29763;50.904;5.530;2023-09-08T13:10:12;37.70;94.50
11067;DHT22;29763;50.904;5.530;2023-09-08T13:12:38;37.80;94.50
11067;DHT22;29763;50.904;5.530;2023-09-08T13:15:04;37.90;94.10
11067;DHT22;29763;50.904;5.530;2023-09-08T13:17:31;37.50;93.90
11067;DHT22;29763;50.904;5.530;2023-09-08T13:19:58;37.70;94.60
11067;DHT22;29763;50.904;5.530;2023-09-08T13:22:24;37.80;94.60
11067;DHT22;29763;50.904;5.530;2023-09-08T13:24:52;37.60;94.50
11067;DHT22;29763;50.904;5.530;2023-09-08T13:27:17;37.10;95.10
11067;DHT22;29763;50.904;5.530;2023-09-08T13:29:44;37.20;94.90
11067;DHT22;29763;50.904;5.530;2023-09-08T13:32:10;37.40;94.80
11067;DHT22;29763;50.904;5.530;2023-09-08T13:34:36;37.50;95.00
11067;DHT22;29763;50.904;5.530;2023-09-08T13:37:06;37.50;95.00
11067;DHT22;29763;50.904;5.530;2023-09-08T13:39:32;37.50;94.50
11067;DHT22;29763;50.904;5.530;2023-09-08T13:42:00;37.50;95.00
11067;DHT22;29763;50.904;5.530;2023-09-08T13:44:27;37.30;94.90
11067;DHT22;29763;50.904;5.530;2023-09-08T13:46:54;37.30;95.40
11067;DHT22;29763;50.904;5.530;2023-09-08T13:49:20;37.30;95.20
11067;DHT22;29763;50.904;5.530;2023-09-08T13:51:47;37.40;95.40
11067;DHT22;29763;50.904;5.530;2023-09-08T13:54:16;37.10;95.60
11067;DHT22;29763;50.904;5.530;2023-09-08T13:56:43;37.20;95.20
11067;DHT22;29763;50.904;5.530;2023-09-08T13:59:09;37.10;95.10
11067;DHT22;29763;50.904;5.530;2023-09-08T14:01:38;36.90;95.20
11067;DHT22;29763;50.904;5.530;2023-09-08T14:04:06;37.00;95.50
11067;DHT22;29763;50.904;5.530;2023-09-08T14:06:32;36.90;95.50
11067;DHT22;29763;50.904;5.530;2023-09-08T14:08:58;36.90;95.10
11067;DHT22;29763;50.904;5.530;2023-09-08T14:11:25;36.80;95.30
11067;DHT22;29763;50.904;5.530;2023-09-08T14:13:52;36.80;95.10
11067;DHT22;29763;50.904;5.530;2023-09-08T14:16:18;36.80;95.30
11067;DHT22;29763;50.904;5.530;2023-09-08T14:18:44;36.50;95.20
11067;DHT22;29763;50.904;5.530;2023-09-08T14:21:11;36.50;95.10
11067;DHT22;29763;50.904;5.530;2023-09-08T14:23:38;36.50;95.70
11067;DHT22;29763;50.904;5.530;2023-09-08T14:26:05;36.50;95.50
11067;DHT22;29763;50.904;5.530;2023-09-08T14:28:31;36.40;96.20
11067;DHT22;29763;50.904;5.530;2023-09-08T14:30:59;36.50;95.30
11067;DHT22;29763;50.904;5.530;2023-09-08T14:33:31;36.50;94.90
11067;DHT22;29763;50.904;5.530;2023-09-08T14:35:57;36.50;94.60
11067;DHT22;29763;50.904;5.530;2023-09-08T14:38:24;36.50;94.90
11067;DHT22;29763;50.904;5.530;2023-09-08T14:40:58;36.50;94.90
11067;DHT22;29763;50.904;5.530;2023-09-08T14:43:25;36.60;94.50
11067;DHT22;29763;50.904;5.530;2023-09-08T14:45:54;36.70;94.70
11067;DHT22;29763;50.904;5.530;2023-09-08T14:48:25;36.20;94.10
11067;DHT22;29763;50.904;5.530;2023-09-08T14:50:53;36.20;94.80
11067;DHT22;29763;50.904;5.530;2023-09-08T14:53:25;35.90;94.40
11067;DHT22;29763;50.904;5.530;2023-09-08T14:55:53;35.80;94.40
11067;DHT22;29763;50.904;5.530;2023-09-08T14:58:23;35.80;95.10
11067;DHT22;29763;50.904;5.530;2023-09-08T15:00:48;35.90;94.80
11067;DHT22;29763;50.904;5.530;2023-09-08T15:03:14;35.90;94.60
11067;DHT22;29763;50.904;5.530;2023-09-08T15:05:40;36.00;94.70
11067;DHT22;29763;50.904;5.530;2023-09-08T15:08:06;35.90;94.70
11067;DHT22;29763;50.904;5.530;2023-09-08T15:10:32;35.90;94.00
11067;DHT22;29763;50.904;5.530;2023-09-08T15:13:05;35.80;94.30
11067;DHT22;29763;50.904;5.530;2023-09-08T15:15:31;35.70;94.10
11067;DHT22;29763;50.904;5.530;2023-09-08T15:17:56;35.80;93.70
11067;DHT22;29763;50.904;5.530;2023-09-08T15:20:24;35.50;94.10
11067;DHT22;29763;50.904;5.530;2023-09-08T15:22:49;35.40;94.60
11067;DHT22;29763;50.904;5.530;2023-09-08T15:25:17;35.20;94.20
11067;DHT22;29763;50.904;5.530;2023-09-08T15:27:43;35.20;94.40
11067;DHT22;29763;50.904;5.530;2023-09-08T15:30:10;35.20;95.00
11067;DHT22;29763;50.904;5.530;2023-09-08T15:32:37;35.00;94.10
11067;DHT22;29763;50.904;5.530;2023-09-08T15:35:05;35.00;94.30
11067;DHT22;29763;50.904;5.530;2023-09-08T15:37:31;34.90;94.20
11067;DHT22;29763;50.904;5.530;2023-09-08T15:39:58;34.80;94.00
11067;DHT22;29763;50.904;5.530;2023-09-08T15:42:24;34.70;94.80